createdAt,value
2022-09-16T00:01:29.856Z,16.30
2022-09-16T00:04:18.286Z,16.30
2022-09-16T00:07:05.124Z,16.20
2022-09-16T00:09:51.418Z,16.20
2022-09-16T00:12:37.927Z,16.20
2022-09-16T00:15:24.369Z,16.20
2022-09-16T00:18:12.394Z,16.30
2022-09-16T00:20:59.118Z,16.10
2022-09-16T00:23:45.686Z,16.20
2022-09-16T00:26:31.995Z,16.10
2022-09-16T00:29:18.767Z,16.00
2022-09-16T00:32:05.351Z,16.10
2022-09-16T00:34:53.301Z,16.10
2022-09-16T00:37:39.621Z,16.20
2022-09-16T00:40:26.131Z,16.30
2022-09-16T00:43:14.977Z,16.10
2022-09-16T00:46:07.354Z,16.20
2022-09-16T00:48:54.051Z,16.20
2022-09-16T00:51:43.270Z,16.20
2022-09-16T00:54:30.814Z,16.30
2022-09-16T00:57:17.669Z,16.30
2022-09-16T01:00:07.489Z,16.30
2022-09-16T01:02:54.337Z,16.30
2022-09-16T01:05:41.313Z,16.20
2022-09-16T01:08:29.224Z,16.20
2022-09-16T01:11:15.476Z,16.10
2022-09-16T01:14:17.618Z,16.10
2022-09-16T01:17:18.314Z,16.10
2022-09-16T01:20:27.741Z,16.10
2022-09-16T01:23:42.061Z,16.10
2022-09-16T01:27:04.272Z,16.10
2022-09-16T01:30:19.284Z,15.90
2022-09-16T01:33:10.121Z,15.70
2022-09-16T01:36:07.368Z,15.70
2022-09-16T01:39:08.019Z,15.70
2022-09-16T01:42:07.399Z,15.80
2022-09-16T01:45:01.580Z,15.60
2022-09-16T01:47:55.869Z,15.40
2022-09-16T01:50:47.373Z,15.40
2022-09-16T01:53:38.626Z,15.30
2022-09-16T01:56:33.900Z,15.10
2022-09-16T01:59:24.782Z,15.00
2022-09-16T02:02:16.859Z,15.10
2022-09-16T02:05:08.779Z,15.30
2022-09-16T02:08:02.308Z,15.30
2022-09-16T02:10:54.900Z,15.40
2022-09-16T02:13:44.830Z,15.50
2022-09-16T02:16:35.942Z,15.50
2022-09-16T02:19:27.234Z,15.60
2022-09-16T02:22:16.400Z,15.60
2022-09-16T02:25:05.946Z,15.60
2022-09-16T02:27:54.958Z,15.60
2022-09-16T02:30:44.046Z,15.70
2022-09-16T02:33:34.386Z,15.60
2022-09-16T02:36:23.539Z,15.60
2022-09-16T02:39:12.570Z,15.60
2022-09-16T02:42:02.323Z,15.60
2022-09-16T02:44:48.786Z,15.50
2022-09-16T02:47:46.115Z,15.40
2022-09-16T02:50:42.339Z,15.50
2022-09-16T02:53:38.132Z,15.50
2022-09-16T02:56:29.879Z,15.40
2022-09-16T02:59:18.829Z,15.40
2022-09-16T03:02:05.845Z,15.50
2022-09-16T03:04:52.767Z,15.50
2022-09-16T03:07:41.305Z,15.50
2022-09-16T03:10:36.719Z,15.70
2022-09-16T03:13:29.799Z,15.50
2022-09-16T03:16:22.579Z,15.30
2022-09-16T03:19:17.955Z,15.20
2022-09-16T03:22:12.476Z,15.10
2022-09-16T03:25:06.284Z,15.00
2022-09-16T03:27:56.179Z,15.00
2022-09-16T03:30:54.287Z,15.10
2022-09-16T03:33:48.894Z,15.20
2022-09-16T03:36:38.287Z,15.10
2022-09-16T03:39:24.706Z,14.90
2022-09-16T03:42:11.706Z,14.90
2022-09-16T03:44:58.338Z,15.00
2022-09-16T03:47:45.560Z,15.00
2022-09-16T03:50:33.378Z,15.10
2022-09-16T03:53:19.770Z,14.90
2022-09-16T03:56:06.426Z,14.80
2022-09-16T03:58:53.418Z,14.80
2022-09-16T04:01:40.140Z,14.70
2022-09-16T04:04:26.906Z,14.60
2022-09-16T04:07:14.640Z,14.60
2022-09-16T04:10:01.360Z,14.80
2022-09-16T04:12:47.705Z,15.00
2022-09-16T04:15:37.280Z,15.10
2022-09-16T04:18:24.239Z,15.20
2022-09-16T04:21:11.091Z,15.30
2022-09-16T04:23:58.708Z,15.50
2022-09-16T04:26:45.449Z,15.50
2022-09-16T04:29:32.301Z,15.50
2022-09-16T04:32:18.701Z,15.40
2022-09-16T04:35:05.438Z,15.30
2022-09-16T04:37:52.788Z,15.20
2022-09-16T04:40:40.618Z,15.30
2022-09-16T04:43:27.044Z,15.40
2022-09-16T04:46:14.246Z,15.50
2022-09-16T04:49:01.484Z,15.50
2022-09-16T04:51:48.533Z,15.40
2022-09-16T04:54:35.097Z,15.40
2022-09-16T04:57:22.688Z,15.50
2022-09-16T05:00:10.470Z,15.60
2022-09-16T05:02:57.762Z,15.60
2022-09-16T05:05:44.148Z,15.50
2022-09-16T05:08:30.425Z,15.50
2022-09-16T05:11:18.398Z,15.50
2022-09-16T05:14:08.513Z,15.50
2022-09-16T05:16:54.893Z,15.50
2022-09-16T05:19:41.194Z,15.50
2022-09-16T05:22:27.650Z,15.50
2022-09-16T05:25:14.271Z,15.50
2022-09-16T05:28:01.369Z,15.60
2022-09-16T05:30:49.072Z,15.70
2022-09-16T05:33:35.868Z,15.80
2022-09-16T05:36:23.188Z,15.70
2022-09-16T05:39:25.855Z,15.60
2022-09-16T05:42:12.697Z,15.70
2022-09-16T05:44:59.165Z,15.70
2022-09-16T05:47:50.031Z,15.70
2022-09-16T05:50:36.828Z,15.60
2022-09-16T05:53:24.342Z,15.60
2022-09-16T05:56:13.553Z,15.60
2022-09-16T05:59:01.098Z,15.60
2022-09-16T06:01:47.477Z,15.60
2022-09-16T06:04:36.141Z,15.50
2022-09-16T06:07:22.737Z,15.50
2022-09-16T06:10:09.627Z,15.40
2022-09-16T06:12:56.599Z,15.50
2022-09-16T06:15:50.998Z,15.60
2022-09-16T06:18:38.476Z,15.50
2022-09-16T06:21:26.565Z,15.40
2022-09-16T06:24:13.995Z,15.40
2022-09-16T06:27:00.334Z,15.40
2022-09-16T06:29:46.541Z,15.40
2022-09-16T06:32:33.313Z,15.30
2022-09-16T06:35:19.772Z,15.40
2022-09-16T06:38:07.342Z,15.40
2022-09-16T06:40:53.737Z,15.40
2022-09-16T06:43:40.616Z,15.60
2022-09-16T06:46:28.971Z,15.60
2022-09-16T06:49:15.690Z,15.60
2022-09-16T06:52:01.979Z,15.60
2022-09-16T06:54:50.767Z,15.70
2022-09-16T06:57:37.036Z,15.70
2022-09-16T07:00:23.271Z,15.60
2022-09-16T07:03:09.552Z,15.60
2022-09-16T07:06:00.286Z,15.60
2022-09-16T07:08:47.677Z,15.60
2022-09-16T07:11:35.612Z,15.60
2022-09-16T07:14:22.284Z,15.70
2022-09-16T07:17:09.072Z,15.70
2022-09-16T07:19:55.901Z,15.70
2022-09-16T07:22:42.247Z,15.70
2022-09-16T07:25:31.401Z,15.80
2022-09-16T07:28:21.205Z,15.70
2022-09-16T07:31:09.509Z,15.80
2022-09-16T07:34:03.585Z,15.80
2022-09-16T07:36:50.975Z,15.80
2022-09-16T07:39:37.641Z,16.00
2022-09-16T07:42:24.025Z,16.00
2022-09-16T07:45:12.206Z,16.10
2022-09-16T07:47:58.597Z,16.20
2022-09-16T07:50:44.896Z,16.30
2022-09-16T07:53:31.977Z,16.10
2022-09-16T07:56:22.926Z,16.10
2022-09-16T07:59:15.806Z,16.10
2022-09-16T08:02:06.564Z,16.20
2022-09-16T08:04:53.133Z,16.20
2022-09-16T08:07:39.871Z,16.20
2022-09-16T08:10:30.406Z,16.10
2022-09-16T08:13:18.691Z,16.20
2022-09-16T08:16:07.382Z,16.10
2022-09-16T08:18:57.661Z,16.20
2022-09-16T08:21:44.444Z,16.30
2022-09-16T08:24:30.745Z,16.30
2022-09-16T08:27:17.110Z,16.40
2022-09-16T08:30:03.837Z,16.40
2022-09-16T08:32:56.739Z,16.40
2022-09-16T08:35:44.507Z,16.30
2022-09-16T08:38:31.379Z,16.30
2022-09-16T08:41:32.268Z,16.40
2022-09-16T08:44:30.518Z,16.30
2022-09-16T08:47:35.819Z,16.40
2022-09-16T08:50:27.168Z,16.40
2022-09-16T08:53:20.786Z,16.30
2022-09-16T08:56:11.772Z,16.40
2022-09-16T08:59:02.288Z,16.50
2022-09-16T09:01:53.472Z,16.50
2022-09-16T09:04:40.390Z,16.70
2022-09-16T09:07:33.821Z,16.50
2022-09-16T09:10:26.592Z,16.50
2022-09-16T09:13:22.882Z,16.50
2022-09-16T09:16:17.578Z,16.40
2022-09-16T09:19:14.728Z,16.40
2022-09-16T09:22:13.730Z,16.40
2022-09-16T09:25:26.720Z,16.50
2022-09-16T09:28:28.842Z,16.50
2022-09-16T09:31:25.012Z,16.50
2022-09-16T09:34:35.876Z,16.50
2022-09-16T09:37:38.912Z,16.40
2022-09-16T09:40:35.785Z,16.30
2022-09-16T09:43:29.272Z,16.30
2022-09-16T09:46:21.951Z,16.10
2022-09-16T09:49:14.500Z,16.00
2022-09-16T09:52:18.717Z,16.00
2022-09-16T09:55:16.658Z,15.90
2022-09-16T09:58:16.736Z,16.00
2022-09-16T10:01:03.450Z,16.00
2022-09-16T10:03:51.683Z,16.00
2022-09-16T10:06:38.228Z,16.00
2022-09-16T10:09:25.593Z,15.80
2022-09-16T10:12:11.967Z,15.80
2022-09-16T10:15:00.094Z,15.90
2022-09-16T10:17:50.101Z,15.90
2022-09-16T10:20:39.249Z,15.90
2022-09-16T10:23:29.903Z,15.80
2022-09-16T10:26:22.780Z,15.80
2022-09-16T10:29:17.783Z,15.70
2022-09-16T10:32:09.191Z,15.80
2022-09-16T10:34:57.261Z,15.80
2022-09-16T10:37:50.926Z,15.80
2022-09-16T10:40:38.078Z,15.80
2022-09-16T10:43:26.886Z,15.90
2022-09-16T10:46:16.845Z,16.00
2022-09-16T10:49:11.532Z,15.90
2022-09-16T10:52:10.199Z,16.00
2022-09-16T10:54:57.906Z,16.10
2022-09-16T10:57:44.447Z,16.30
2022-09-16T11:00:35.489Z,16.60
2022-09-16T11:04:06.221Z,16.80
2022-09-16T11:07:04.603Z,17.00
2022-09-16T11:09:59.825Z,17.30
2022-09-16T11:13:19.933Z,17.70
2022-09-16T11:16:21.579Z,18.10
2022-09-16T11:19:14.801Z,18.10
2022-09-16T11:22:17.521Z,18.30
2022-09-16T11:25:33.621Z,18.60
2022-09-16T11:28:58.487Z,18.70
2022-09-16T11:31:48.777Z,19.10
2022-09-16T11:34:49.854Z,19.30
2022-09-16T11:37:46.821Z,19.40
2022-09-16T11:40:46.825Z,19.60
2022-09-16T11:43:47.549Z,19.30
2022-09-16T11:46:43.368Z,19.60
2022-09-16T11:49:45.986Z,19.50
2022-09-16T11:53:04.379Z,19.70
2022-09-16T11:55:56.792Z,20.50
2022-09-16T11:58:48.728Z,20.40
2022-09-16T12:01:40.705Z,20.40
2022-09-16T12:04:34.931Z,20.40
2022-09-16T12:07:30.445Z,20.20
2022-09-16T12:10:24.573Z,19.90
2022-09-16T12:13:15.545Z,19.50
2022-09-16T12:16:06.570Z,19.50
2022-09-16T12:18:57.573Z,19.50
2022-09-16T12:21:57.505Z,19.50
2022-09-16T12:24:48.222Z,19.50
2022-09-16T12:27:45.361Z,19.40
2022-09-16T12:30:37.746Z,19.30
2022-09-16T12:33:28.750Z,19.20
2022-09-16T12:36:21.795Z,19.10
2022-09-16T12:39:12.592Z,19.40
2022-09-16T12:42:37.061Z,19.80
2022-09-16T12:45:38.777Z,20.40
2022-09-16T12:48:40.268Z,20.30
2022-09-16T12:51:59.153Z,20.40
2022-09-16T12:55:29.683Z,20.40
2022-09-16T12:59:00.539Z,20.50
2022-09-16T13:01:50.481Z,20.00
2022-09-16T13:04:41.893Z,19.60
2022-09-16T13:07:33.537Z,19.20
2022-09-16T13:10:40.632Z,19.10
2022-09-16T13:13:35.233Z,18.80
2022-09-16T13:16:31.624Z,18.80
2022-09-16T13:19:38.874Z,18.70
2022-09-16T13:22:30.941Z,18.60
2022-09-16T13:25:24.071Z,18.70
2022-09-16T13:28:28.082Z,18.90
2022-09-16T13:31:20.197Z,18.90
2022-09-16T13:34:17.212Z,18.70
2022-09-16T13:37:16.305Z,18.60
2022-09-16T13:40:19.589Z,18.50
2022-09-16T13:43:14.949Z,18.30
2022-09-16T13:46:05.006Z,18.20
2022-09-16T13:48:57.717Z,18.40
2022-09-16T13:51:47.406Z,18.70
2022-09-16T13:55:06.177Z,18.60
2022-09-16T13:58:03.733Z,18.60
2022-09-16T14:01:02.817Z,18.70
2022-09-16T14:03:59.208Z,18.70
2022-09-16T14:07:07.532Z,18.80
2022-09-16T14:10:01.508Z,18.90
2022-09-16T14:12:59.732Z,19.00
2022-09-16T14:15:50.471Z,19.20
2022-09-16T14:18:37.612Z,19.10
2022-09-16T14:21:25.593Z,19.00
2022-09-16T14:24:19.086Z,18.80
2022-09-16T14:27:20.847Z,18.60
2022-09-16T14:30:14.322Z,18.40
2022-09-16T14:33:03.545Z,18.40
2022-09-16T14:35:52.083Z,18.30
2022-09-16T14:38:46.556Z,18.30
2022-09-16T14:41:38.206Z,18.20
2022-09-16T14:44:31.863Z,18.40
2022-09-16T14:47:39.709Z,18.50
2022-09-16T14:50:32.369Z,18.60
2022-09-16T14:53:35.831Z,18.70
2022-09-16T14:56:24.183Z,18.70
2022-09-16T14:59:13.774Z,18.70
2022-09-16T15:02:05.545Z,18.60
2022-09-16T15:04:57.559Z,18.60
2022-09-16T15:08:09.916Z,18.70
2022-09-16T15:10:55.528Z,18.70
2022-09-16T15:13:44.534Z,18.60
2022-09-16T15:16:31.152Z,18.70
2022-09-16T15:19:23.252Z,18.70
2022-09-16T15:22:15.749Z,18.80
2022-09-16T15:25:02.170Z,18.80
2022-09-16T15:27:48.740Z,18.70
2022-09-16T15:30:35.776Z,18.50
2022-09-16T15:33:31.270Z,18.40
2022-09-16T15:36:36.449Z,18.40
2022-09-16T15:39:25.907Z,18.20
2022-09-16T15:42:14.508Z,18.20
2022-09-16T15:45:03.236Z,18.20
2022-09-16T15:48:01.881Z,18.10
2022-09-16T15:50:52.496Z,18.10
2022-09-16T15:53:44.064Z,18.10
2022-09-16T15:56:35.364Z,18.10
2022-09-16T15:59:28.480Z,18.00
2022-09-16T16:02:24.506Z,18.10
2022-09-16T16:05:14.600Z,18.10
2022-09-16T16:08:07.509Z,18.20
2022-09-16T16:11:09.238Z,18.10
2022-09-16T16:13:59.842Z,17.90
2022-09-16T16:17:11.195Z,17.70
2022-09-16T16:19:57.562Z,17.60
2022-09-16T16:22:45.248Z,17.40
2022-09-16T16:25:32.171Z,17.20
2022-09-16T16:28:19.978Z,17.10
2022-09-16T16:31:11.380Z,17.10
2022-09-16T16:33:58.301Z,17.20
2022-09-16T16:36:44.599Z,17.30
2022-09-16T16:39:31.518Z,17.30
2022-09-16T16:42:18.522Z,17.30
2022-09-16T16:45:07.381Z,17.30
2022-09-16T16:47:54.005Z,17.30
2022-09-16T16:50:40.584Z,17.20
2022-09-16T16:53:28.145Z,17.20
2022-09-16T16:56:15.749Z,17.10
2022-09-16T16:59:02.401Z,17.10
2022-09-16T17:01:52.959Z,17.10
2022-09-16T17:04:39.452Z,17.00
2022-09-16T17:07:27.272Z,17.00
2022-09-16T17:10:14.685Z,17.00
2022-09-16T17:13:00.865Z,16.90
2022-09-16T17:15:47.346Z,16.90
2022-09-16T17:18:36.757Z,16.80
2022-09-16T17:21:24.917Z,16.80
2022-09-16T17:24:11.394Z,16.70
2022-09-16T17:27:01.252Z,16.70
2022-09-16T17:29:47.984Z,16.60
2022-09-16T17:32:34.368Z,16.60
2022-09-16T17:35:22.101Z,16.60
2022-09-16T17:38:09.097Z,16.60
2022-09-16T17:41:02.569Z,16.60
2022-09-16T17:43:49.412Z,16.60
2022-09-16T17:46:36.377Z,16.60
2022-09-16T17:49:24.586Z,16.60
2022-09-16T17:52:12.481Z,16.60
2022-09-16T17:54:59.193Z,16.50
2022-09-16T17:57:45.533Z,16.40
2022-09-16T18:00:32.089Z,16.40
2022-09-16T18:03:18.610Z,16.40
2022-09-16T18:06:07.340Z,16.50
2022-09-16T18:08:55.923Z,16.50
2022-09-16T18:11:42.560Z,16.40
2022-09-16T18:14:30.237Z,16.50
2022-09-16T18:17:18.652Z,16.30
2022-09-16T18:20:07.265Z,16.20
2022-09-16T18:22:53.845Z,16.00
2022-09-16T18:25:41.511Z,16.00
2022-09-16T18:28:27.779Z,15.90
2022-09-16T18:31:16.005Z,15.90
2022-09-16T18:34:03.023Z,15.80
2022-09-16T18:36:49.489Z,15.80
2022-09-16T18:39:35.804Z,15.70
2022-09-16T18:42:23.758Z,15.70
2022-09-16T18:45:10.769Z,15.60
2022-09-16T18:47:57.439Z,15.60
2022-09-16T18:50:43.877Z,15.60
2022-09-16T18:53:30.100Z,15.50
2022-09-16T18:56:18.150Z,15.60
2022-09-16T18:59:23.989Z,15.60
2022-09-16T19:02:13.329Z,15.50
2022-09-16T19:05:00.067Z,15.40
2022-09-16T19:07:46.504Z,15.20
2022-09-16T19:10:34.280Z,15.10
2022-09-16T19:13:21.033Z,15.00
2022-09-16T19:16:09.013Z,15.00
2022-09-16T19:18:57.211Z,14.90
2022-09-16T19:21:44.555Z,14.90
2022-09-16T19:24:31.252Z,14.90
2022-09-16T19:27:17.593Z,14.90
2022-09-16T19:30:04.329Z,14.80
2022-09-16T19:32:53.363Z,14.80
2022-09-16T19:35:39.846Z,14.70
2022-09-16T19:38:28.294Z,14.70
2022-09-16T19:41:16.221Z,14.60
2022-09-16T19:44:04.417Z,14.60
2022-09-16T19:46:51.188Z,14.50
2022-09-16T19:49:38.977Z,14.60
2022-09-16T19:52:25.429Z,14.60
2022-09-16T19:55:11.832Z,14.70
2022-09-16T19:57:58.285Z,14.50
2022-09-16T20:00:55.778Z,14.40
2022-09-16T20:03:44.458Z,14.30
2022-09-16T20:06:36.154Z,14.40
2022-09-16T20:09:22.669Z,14.40
2022-09-16T20:12:09.039Z,14.40
2022-09-16T20:14:57.908Z,14.40
2022-09-16T20:17:44.363Z,14.40
2022-09-16T20:20:30.839Z,14.40
2022-09-16T20:23:18.604Z,14.30
2022-09-16T20:26:06.837Z,14.30
2022-09-16T20:28:55.119Z,14.20
2022-09-16T20:31:41.469Z,14.20
2022-09-16T20:34:27.952Z,14.20
2022-09-16T20:37:14.393Z,14.10
2022-09-16T20:40:02.519Z,14.10
2022-09-16T20:42:49.160Z,14.10
2022-09-16T20:45:37.427Z,14.10
2022-09-16T20:48:24.075Z,14.00
2022-09-16T20:51:12.688Z,14.10
2022-09-16T20:54:04.944Z,13.90
2022-09-16T20:56:54.952Z,13.90
2022-09-16T20:59:42.179Z,13.90
2022-09-16T21:02:28.800Z,13.90
2022-09-16T21:05:15.807Z,13.80
2022-09-16T21:08:03.082Z,13.80
2022-09-16T21:10:49.710Z,13.70
2022-09-16T21:13:37.416Z,13.70
2022-09-16T21:16:24.567Z,13.60
2022-09-16T21:19:12.777Z,13.70
2022-09-16T21:21:59.470Z,13.60
2022-09-16T21:24:45.720Z,13.60
2022-09-16T21:27:33.085Z,13.60
2022-09-16T21:30:21.074Z,13.60
2022-09-16T21:33:07.572Z,13.60
2022-09-16T21:35:54.563Z,13.60
2022-09-16T21:38:42.444Z,13.60
2022-09-16T21:41:29.049Z,13.70
2022-09-16T21:44:16.458Z,13.70
2022-09-16T21:47:11.453Z,13.70
2022-09-16T21:50:02.515Z,13.60
2022-09-16T21:52:49.221Z,13.60
2022-09-16T21:55:35.648Z,13.60
2022-09-16T21:58:21.920Z,13.60
2022-09-16T22:01:11.510Z,13.50
2022-09-16T22:04:01.056Z,13.50
2022-09-16T22:06:48.674Z,13.50
2022-09-16T22:09:35.324Z,13.50
2022-09-16T22:12:21.767Z,13.50
2022-09-16T22:15:09.088Z,13.40
2022-09-16T22:17:55.598Z,13.40
2022-09-16T22:20:43.293Z,13.40
2022-09-16T22:23:29.861Z,13.30
2022-09-16T22:26:17.442Z,13.20
2022-09-16T22:29:03.876Z,13.20
2022-09-16T22:31:50.346Z,13.10
2022-09-16T22:34:37.305Z,13.10
2022-09-16T22:37:24.916Z,13.10
2022-09-16T22:40:11.770Z,13.10
2022-09-16T22:42:59.101Z,13.10
2022-09-16T22:45:45.677Z,13.10
2022-09-16T22:48:32.344Z,13.20
2022-09-16T22:51:20.724Z,13.10
2022-09-16T22:54:09.272Z,13.20
2022-09-16T22:56:55.543Z,13.20
2022-09-16T22:59:42.042Z,13.20
2022-09-16T23:02:29.837Z,13.30
2022-09-16T23:05:16.324Z,13.30
2022-09-16T23:08:03.144Z,13.30
2022-09-16T23:10:50.834Z,13.30
2022-09-16T23:13:41.775Z,13.20
2022-09-16T23:16:30.553Z,13.30
2022-09-16T23:19:17.810Z,13.30
2022-09-16T23:22:04.555Z,13.30
2022-09-16T23:24:50.749Z,13.30
2022-09-16T23:27:39.356Z,13.20
2022-09-16T23:30:26.172Z,13.20
2022-09-16T23:33:12.443Z,13.20
2022-09-16T23:35:59.546Z,13.20
2022-09-16T23:38:46.848Z,13.20
2022-09-16T23:41:33.184Z,13.20
2022-09-16T23:44:22.421Z,13.10
2022-09-16T23:47:08.791Z,13.00
2022-09-16T23:49:55.158Z,13.00
2022-09-16T23:52:41.493Z,13.10
2022-09-16T23:55:28.444Z,13.00
2022-09-16T23:58:15.312Z,13.00
